createdAt,value
2023-03-17T00:04:34.301Z,71.60
2023-03-17T00:09:15.439Z,71.50
2023-03-17T00:13:54.840Z,71.20
2023-03-17T00:18:33.826Z,70.80
2023-03-17T00:23:17.073Z,70.50
2023-03-17T00:27:56.291Z,70.50
2023-03-17T00:32:36.137Z,70.40
2023-03-17T00:37:14.920Z,70.40
2023-03-17T00:41:53.686Z,70.40
2023-03-17T00:46:37.982Z,70.40
2023-03-17T00:51:17.898Z,70.30
2023-03-17T00:55:55.539Z,70.20
2023-03-17T01:00:35.398Z,70.20
2023-03-17T01:05:16.128Z,70.10
2023-03-17T01:09:55.921Z,70.00
2023-03-17T01:14:38.104Z,69.80
2023-03-17T01:19:17.082Z,69.60
2023-03-17T01:23:56.100Z,69.40
2023-03-17T01:28:37.336Z,69.10
2023-03-17T01:33:15.592Z,68.90
2023-03-17T01:37:55.452Z,68.60
2023-03-17T01:42:34.133Z,68.40
2023-03-17T01:47:16.986Z,68.40
2023-03-17T01:52:02.603Z,68.40
2023-03-17T01:56:45.189Z,68.50
2023-03-17T02:01:30.662Z,68.40
2023-03-17T02:06:12.577Z,68.40
2023-03-17T02:10:50.729Z,68.40
2023-03-17T02:15:38.938Z,68.40
2023-03-17T02:21:03.910Z,68.40
2023-03-17T02:25:47.166Z,68.30
2023-03-17T02:30:26.847Z,68.10
2023-03-17T02:35:07.168Z,68.10
2023-03-17T02:39:48.744Z,68.30
2023-03-17T02:44:29.823Z,68.40
2023-03-17T02:49:08.372Z,68.70
2023-03-17T02:53:47.495Z,68.60
2023-03-17T02:58:27.086Z,69.00
2023-03-17T03:03:08.473Z,69.00
2023-03-17T03:07:46.150Z,69.00
2023-03-17T03:12:26.019Z,69.00
2023-03-17T03:17:05.467Z,69.10
2023-03-17T03:21:46.325Z,69.20
2023-03-17T03:26:24.357Z,69.30
2023-03-17T03:31:03.926Z,69.40
2023-03-17T03:35:44.394Z,69.60
2023-03-17T03:40:25.216Z,69.90
2023-03-17T03:45:02.598Z,70.00
2023-03-17T03:49:42.240Z,70.10
2023-03-17T03:54:21.690Z,70.10
2023-03-17T03:59:02.547Z,69.90
2023-03-17T04:03:40.884Z,69.00
2023-03-17T04:08:20.301Z,68.20
2023-03-17T04:13:04.435Z,67.90
2023-03-17T04:17:50.028Z,67.30
2023-03-17T04:22:34.454Z,67.40
2023-03-17T04:27:18.802Z,67.30
2023-03-17T04:32:03.397Z,66.90
2023-03-17T04:36:50.042Z,66.50
2023-03-17T04:41:34.537Z,66.10
2023-03-17T04:46:18.624Z,66.00
2023-03-17T04:51:02.760Z,66.20
2023-03-17T04:55:48.190Z,66.50
2023-03-17T05:00:33.800Z,66.40
2023-03-17T05:05:17.955Z,66.60
2023-03-17T05:10:02.143Z,66.70
2023-03-17T05:14:47.787Z,67.10
2023-03-17T05:19:31.838Z,67.30
2023-03-17T05:24:15.937Z,67.00
2023-03-17T05:29:00.330Z,66.70
2023-03-17T05:33:46.625Z,65.80
2023-03-17T05:38:30.978Z,65.70
2023-03-17T05:43:15.364Z,66.10
2023-03-17T05:47:59.528Z,65.00
2023-03-17T05:52:44.981Z,64.60
2023-03-17T05:57:29.231Z,64.50
2023-03-17T06:02:14.553Z,64.00
2023-03-17T06:06:58.899Z,63.90
2023-03-17T06:11:44.760Z,63.80
2023-03-17T06:16:30.880Z,64.50
2023-03-17T06:21:15.631Z,64.00
2023-03-17T06:25:59.924Z,63.20
2023-03-17T06:30:45.697Z,62.40
2023-03-17T06:35:30.575Z,60.90
2023-03-17T06:40:16.230Z,60.60
2023-03-17T06:45:00.430Z,59.80
2023-03-17T06:49:46.552Z,60.50
2023-03-17T06:54:30.896Z,59.40
2023-03-17T06:59:15.182Z,58.60
2023-03-17T07:03:59.679Z,58.50
2023-03-17T07:08:46.434Z,57.10
2023-03-17T07:13:31.998Z,53.50
2023-03-17T07:18:17.002Z,51.80
2023-03-17T07:23:01.911Z,50.40
2023-03-17T07:27:47.812Z,50.40
2023-03-17T07:32:32.024Z,50.40
2023-03-17T07:37:16.347Z,49.80
2023-03-17T07:42:00.534Z,50.70
2023-03-17T07:46:46.433Z,49.50
2023-03-17T07:51:30.652Z,45.60
2023-03-17T07:56:14.967Z,45.90
2023-03-17T08:00:59.059Z,43.40
2023-03-17T08:05:46.462Z,43.20
2023-03-17T08:10:30.916Z,40.80
2023-03-17T08:15:15.607Z,42.10
2023-03-17T08:19:59.796Z,41.70
2023-03-17T08:24:45.126Z,40.30
2023-03-17T08:29:30.105Z,39.70
2023-03-17T08:34:14.266Z,37.30
2023-03-17T08:38:58.802Z,36.40
2023-03-17T08:43:44.963Z,37.30
2023-03-17T08:48:30.352Z,36.10
2023-03-17T08:53:14.390Z,35.70
2023-03-17T08:57:58.494Z,36.40
2023-03-17T09:02:45.049Z,35.20
2023-03-17T09:07:29.253Z,35.50
2023-03-17T09:12:15.985Z,33.70
2023-03-17T09:17:00.818Z,34.50
2023-03-17T09:21:46.646Z,33.80
2023-03-17T09:26:31.630Z,32.20
2023-03-17T09:31:15.892Z,31.60
2023-03-17T09:36:00.223Z,30.00
2023-03-17T09:40:50.286Z,30.00
2023-03-17T09:45:37.798Z,30.30
2023-03-17T09:50:29.605Z,31.30
2023-03-17T09:55:26.277Z,31.40
2023-03-17T10:00:23.153Z,31.80
2023-03-17T10:05:20.604Z,32.40
2023-03-17T10:10:16.154Z,31.30
2023-03-17T10:15:04.046Z,29.90
2023-03-17T10:20:01.882Z,29.90
2023-03-17T10:24:54.366Z,30.90
2023-03-17T10:29:42.236Z,30.50
2023-03-17T10:34:31.057Z,29.50
2023-03-17T10:39:21.536Z,30.40
2023-03-17T10:44:27.765Z,30.00
2023-03-17T10:49:29.090Z,31.00
2023-03-17T10:54:20.686Z,30.70
2023-03-17T10:59:10.957Z,31.30
2023-03-17T11:04:03.345Z,30.90
2023-03-17T11:08:58.771Z,31.40
2023-03-17T11:13:47.350Z,31.30
2023-03-17T11:18:40.805Z,31.30
2023-03-17T11:23:49.771Z,32.20
2023-03-17T11:29:01.571Z,33.00
2023-03-17T11:33:56.773Z,33.30
2023-03-17T11:38:56.489Z,35.00
2023-03-17T11:43:54.338Z,36.80
2023-03-17T11:48:50.676Z,37.10
2023-03-17T11:53:53.813Z,36.10
2023-03-17T11:58:42.961Z,33.60
2023-03-17T12:03:46.096Z,34.50
2023-03-17T12:08:46.566Z,37.00
2023-03-17T12:13:41.093Z,36.20
2023-03-17T12:18:33.826Z,36.40
2023-03-17T12:23:29.919Z,37.10
2023-03-17T12:28:21.043Z,37.70
2023-03-17T12:33:17.049Z,38.80
2023-03-17T12:38:11.490Z,38.80
2023-03-17T12:43:11.256Z,39.30
2023-03-17T12:48:33.798Z,40.10
2023-03-17T12:53:30.809Z,38.70
2023-03-17T12:58:30.925Z,39.10
2023-03-17T13:03:26.803Z,39.40
2023-03-17T13:08:16.793Z,38.50
2023-03-17T13:13:18.285Z,39.40
2023-03-17T13:18:50.610Z,39.40
2023-03-17T13:23:36.812Z,39.20
2023-03-17T13:28:28.646Z,38.80
2023-03-17T13:33:23.739Z,38.90
2023-03-17T13:38:39.807Z,38.90
2023-03-17T13:43:47.322Z,39.30
2023-03-17T13:48:36.906Z,38.90
2023-03-17T13:53:27.711Z,39.40
2023-03-17T13:58:27.509Z,39.00
2023-03-17T14:03:19.325Z,40.00
2023-03-17T14:08:07.435Z,40.30
2023-03-17T14:12:58.095Z,41.20
2023-03-17T14:17:46.602Z,40.90
2023-03-17T14:22:32.502Z,41.60
2023-03-17T14:27:16.752Z,40.10
2023-03-17T14:32:06.110Z,40.60
2023-03-17T14:36:52.238Z,40.60
2023-03-17T14:41:37.738Z,41.30
2023-03-17T14:46:25.065Z,42.20
2023-03-17T14:51:15.866Z,42.20
2023-03-17T14:56:01.119Z,42.10
2023-03-17T15:00:49.808Z,42.20
2023-03-17T15:05:39.924Z,41.20
2023-03-17T15:10:26.430Z,41.00
2023-03-17T15:15:22.546Z,41.00
2023-03-17T15:20:17.070Z,41.80
2023-03-17T15:25:02.766Z,42.10
2023-03-17T15:29:48.261Z,42.20
2023-03-17T15:34:32.494Z,42.60
2023-03-17T15:39:17.989Z,42.90
2023-03-17T15:44:04.007Z,43.30
2023-03-17T15:48:49.292Z,43.70
2023-03-17T15:53:33.403Z,43.90
2023-03-17T15:58:18.870Z,44.30
2023-03-17T16:03:13.533Z,44.50
2023-03-17T16:07:58.122Z,44.50
2023-03-17T16:12:42.151Z,44.70
2023-03-17T16:17:32.171Z,44.60
2023-03-17T16:22:39.705Z,44.90
2023-03-17T16:27:23.859Z,45.00
2023-03-17T16:32:14.020Z,45.40
2023-03-17T16:36:59.528Z,46.10
2023-03-17T16:41:43.973Z,46.50
2023-03-17T16:46:29.016Z,46.90
2023-03-17T16:51:13.189Z,47.50
2023-03-17T16:55:58.717Z,47.90
2023-03-17T17:00:43.345Z,48.10
2023-03-17T17:05:29.576Z,48.70
2023-03-17T17:10:15.777Z,49.20
2023-03-17T17:15:01.366Z,48.90
2023-03-17T17:19:45.626Z,48.60
2023-03-17T17:24:29.806Z,48.50
2023-03-17T17:29:16.935Z,48.70
2023-03-17T17:34:02.488Z,48.90
2023-03-17T17:38:46.945Z,49.50
2023-03-17T17:43:31.335Z,50.10
2023-03-17T17:48:16.521Z,50.30
2023-03-17T17:53:05.511Z,50.80
2023-03-17T17:57:52.291Z,51.30
2023-03-17T18:02:36.720Z,51.80
2023-03-17T18:07:20.874Z,52.00
2023-03-17T18:12:06.870Z,52.10
2023-03-17T18:16:51.242Z,52.40
2023-03-17T18:21:36.499Z,53.00
2023-03-17T18:26:20.586Z,53.50
2023-03-17T18:31:10.577Z,53.70
2023-03-17T18:35:55.652Z,54.00
2023-03-17T18:40:39.923Z,54.50
2023-03-17T18:45:24.310Z,54.90
2023-03-17T18:50:13.106Z,55.20
2023-03-17T18:54:57.245Z,55.30
2023-03-17T18:59:41.338Z,55.40
2023-03-17T19:04:25.837Z,55.00
2023-03-17T19:09:11.824Z,55.00
2023-03-17T19:13:55.984Z,54.90
2023-03-17T19:18:42.193Z,54.90
2023-03-17T19:23:26.722Z,54.80
2023-03-17T19:28:12.557Z,54.80
2023-03-17T19:32:56.794Z,54.70
2023-03-17T19:37:41.060Z,54.80
2023-03-17T19:42:25.329Z,55.00
2023-03-17T19:47:11.211Z,54.90
2023-03-17T19:51:55.256Z,55.10
2023-03-17T19:56:39.669Z,55.20
2023-03-17T20:01:23.888Z,55.20
2023-03-17T20:06:09.566Z,55.20
2023-03-17T20:10:54.115Z,55.20
2023-03-17T20:15:38.357Z,55.30
2023-03-17T20:20:22.519Z,55.20
2023-03-17T20:25:10.371Z,55.20
2023-03-17T20:29:55.723Z,55.20
2023-03-17T20:34:39.735Z,55.30
2023-03-17T20:39:24.076Z,55.40
2023-03-17T20:44:09.812Z,55.80
2023-03-17T20:48:58.705Z,56.00
2023-03-17T20:53:44.667Z,56.20
2023-03-17T20:58:28.949Z,56.60
2023-03-17T21:03:09.926Z,56.80
2023-03-17T21:07:54.167Z,56.80
2023-03-17T21:12:38.423Z,56.60
2023-03-17T21:17:22.882Z,56.70
2023-03-17T21:22:08.288Z,56.80
2023-03-17T21:26:52.413Z,56.80
2023-03-17T21:31:36.859Z,56.80
2023-03-17T21:36:22.065Z,57.00
2023-03-17T21:41:22.398Z,57.00
2023-03-17T21:46:07.073Z,57.20
2023-03-17T21:50:51.196Z,57.30
2023-03-17T21:55:35.763Z,57.40
2023-03-17T22:00:15.804Z,57.40
2023-03-17T22:04:56.865Z,57.40
2023-03-17T22:09:36.098Z,57.50
2023-03-17T22:14:20.014Z,57.40
2023-03-17T22:18:59.126Z,57.40
2023-03-17T22:23:41.337Z,57.50
2023-03-17T22:28:20.415Z,57.30
2023-03-17T22:32:59.432Z,57.30
2023-03-17T22:37:41.264Z,57.10
2023-03-17T22:42:20.051Z,57.20
2023-03-17T22:46:58.436Z,57.30
2023-03-17T22:51:38.187Z,57.30
2023-03-17T22:56:19.276Z,57.60
2023-03-17T23:00:57.420Z,57.60
2023-03-17T23:05:36.419Z,57.70
2023-03-17T23:10:17.735Z,57.60
2023-03-17T23:14:57.390Z,57.90
2023-03-17T23:19:35.049Z,57.80
2023-03-17T23:24:14.801Z,58.10
2023-03-17T23:28:54.173Z,58.20
2023-03-17T23:33:35.081Z,58.40
2023-03-17T23:38:13.534Z,58.60
2023-03-17T23:42:55.163Z,58.80
2023-03-17T23:47:32.945Z,59.10
2023-03-17T23:52:13.760Z,60.00
2023-03-17T23:56:52.691Z,59.40
